createdAt,value
2022-10-08T00:01:56.063Z,23.50
2022-10-08T00:04:27.261Z,23.50
2022-10-08T00:06:59.150Z,23.40
2022-10-08T00:09:30.852Z,23.50
2022-10-08T00:12:01.825Z,23.40
2022-10-08T00:14:35.673Z,23.30
2022-10-08T00:17:08.206Z,23.20
2022-10-08T00:19:39.876Z,23.10
2022-10-08T00:22:11.108Z,23.00
2022-10-08T00:24:43.052Z,23.00
2022-10-08T00:27:14.919Z,22.90
2022-10-08T00:29:47.901Z,22.80
2022-10-08T00:32:20.854Z,22.70
2022-10-08T00:34:52.330Z,22.60
2022-10-08T00:37:23.433Z,22.50
2022-10-08T00:39:54.484Z,22.40
2022-10-08T00:42:25.723Z,22.30
2022-10-08T00:45:00.751Z,22.30
2022-10-08T00:47:48.974Z,22.20
2022-10-08T00:50:26.869Z,22.10
2022-10-08T00:53:02.699Z,22.00
2022-10-08T00:55:35.021Z,21.80
2022-10-08T00:58:13.510Z,21.70
2022-10-08T01:00:46.969Z,21.60
2022-10-08T01:03:18.687Z,21.40
2022-10-08T01:05:58.509Z,21.30
2022-10-08T01:08:37.892Z,21.20
2022-10-08T01:11:17.032Z,21.10
2022-10-08T01:13:55.655Z,21.00
2022-10-08T01:16:38.962Z,20.90
2022-10-08T01:19:26.261Z,20.80
2022-10-08T01:22:10.655Z,20.60
2022-10-08T01:25:05.365Z,20.50
2022-10-08T01:27:45.541Z,20.40
2022-10-08T01:30:23.849Z,20.30
2022-10-08T01:33:03.357Z,20.20
2022-10-08T01:35:39.420Z,20.00
2022-10-08T01:38:12.684Z,20.00
2022-10-08T01:40:46.910Z,19.80
2022-10-08T01:43:24.718Z,19.70
2022-10-08T01:46:00.330Z,19.70
2022-10-08T01:48:37.161Z,19.60
2022-10-08T01:51:14.205Z,19.50
2022-10-08T01:53:49.570Z,19.40
2022-10-08T01:56:24.069Z,19.40
2022-10-08T01:59:04.004Z,19.30
2022-10-08T02:01:40.115Z,19.20
2022-10-08T02:04:28.396Z,19.20
2022-10-08T02:07:01.013Z,19.20
2022-10-08T02:09:36.743Z,19.00
2022-10-08T02:12:08.812Z,19.00
2022-10-08T02:14:45.700Z,18.90
2022-10-08T02:17:27.723Z,18.90
2022-10-08T02:20:04.559Z,18.80
2022-10-08T02:22:39.632Z,18.70
2022-10-08T02:25:15.658Z,18.60
2022-10-08T02:27:54.290Z,18.60
2022-10-08T02:30:28.333Z,18.50
2022-10-08T02:33:06.029Z,18.40
2022-10-08T02:35:43.745Z,18.40
2022-10-08T02:38:20.779Z,18.40
2022-10-08T02:40:56.755Z,18.30
2022-10-08T02:43:32.853Z,18.30
2022-10-08T02:46:12.663Z,18.20
2022-10-08T02:48:47.472Z,18.10
2022-10-08T02:51:22.115Z,18.00
2022-10-08T02:53:53.532Z,18.00
2022-10-08T02:56:28.992Z,17.90
2022-10-08T02:59:00.588Z,17.90
2022-10-08T03:01:40.252Z,17.80
2022-10-08T03:04:17.391Z,17.80
2022-10-08T03:06:49.999Z,17.70
2022-10-08T03:09:24.976Z,17.60
2022-10-08T03:11:59.138Z,17.60
2022-10-08T03:14:32.543Z,17.60
2022-10-08T03:17:05.888Z,17.50
2022-10-08T03:19:38.132Z,17.50
2022-10-08T03:22:11.051Z,17.50
2022-10-08T03:24:42.718Z,17.40
2022-10-08T03:27:13.705Z,17.40
2022-10-08T03:29:45.945Z,17.30
2022-10-08T03:32:20.472Z,17.30
2022-10-08T03:34:51.536Z,17.20
2022-10-08T03:37:24.076Z,17.20
2022-10-08T03:39:55.576Z,17.10
2022-10-08T03:42:26.632Z,17.10
2022-10-08T03:44:58.048Z,17.00
2022-10-08T03:47:31.057Z,17.00
2022-10-08T03:50:02.791Z,16.90
2022-10-08T03:52:34.369Z,16.90
2022-10-08T03:55:05.464Z,16.80
2022-10-08T03:57:36.857Z,16.80
2022-10-08T04:00:08.818Z,16.80
2022-10-08T04:02:41.820Z,16.70
2022-10-08T04:05:13.662Z,16.70
2022-10-08T04:07:44.849Z,16.60
2022-10-08T04:10:15.880Z,16.60
2022-10-08T04:12:47.083Z,16.60
2022-10-08T04:15:18.384Z,16.50
2022-10-08T04:17:51.439Z,16.50
2022-10-08T04:20:22.656Z,16.40
2022-10-08T04:22:54.558Z,16.40
2022-10-08T04:25:26.487Z,16.30
2022-10-08T04:27:57.440Z,16.30
2022-10-08T04:30:28.684Z,16.30
2022-10-08T04:33:02.808Z,16.30
2022-10-08T04:35:33.849Z,16.20
2022-10-08T04:38:04.931Z,16.20
2022-10-08T04:40:35.945Z,16.10
2022-10-08T04:43:06.969Z,16.10
2022-10-08T04:45:37.856Z,16.10
2022-10-08T04:48:10.587Z,16.00
2022-10-08T04:50:42.274Z,16.00
2022-10-08T04:53:13.325Z,16.00
2022-10-08T04:55:45.821Z,15.90
2022-10-08T04:58:17.293Z,16.00
2022-10-08T05:00:48.838Z,15.90
2022-10-08T05:03:22.128Z,15.90
2022-10-08T05:05:53.386Z,15.90
2022-10-08T05:08:24.749Z,15.90
2022-10-08T05:10:55.783Z,15.80
2022-10-08T05:13:28.239Z,15.80
2022-10-08T05:15:59.110Z,15.80
2022-10-08T05:18:32.093Z,15.80
2022-10-08T05:21:06.912Z,15.80
2022-10-08T05:23:38.448Z,15.70
2022-10-08T05:26:25.829Z,15.70
2022-10-08T05:29:14.217Z,15.70
2022-10-08T05:31:45.261Z,15.70
2022-10-08T05:34:19.084Z,15.60
2022-10-08T05:36:50.141Z,15.60
2022-10-08T05:39:21.210Z,15.60
2022-10-08T05:41:52.744Z,15.60
2022-10-08T05:44:24.311Z,15.60
2022-10-08T05:46:55.398Z,15.60
2022-10-08T05:49:29.391Z,15.50
2022-10-08T05:52:00.818Z,15.50
2022-10-08T05:54:32.609Z,15.50
2022-10-08T05:57:03.550Z,15.40
2022-10-08T05:59:34.629Z,15.40
2022-10-08T06:02:05.837Z,15.40
2022-10-08T06:04:39.104Z,15.40
2022-10-08T06:07:10.256Z,15.40
2022-10-08T06:09:41.255Z,15.30
2022-10-08T06:12:14.283Z,15.20
2022-10-08T06:14:45.345Z,15.20
2022-10-08T06:17:16.892Z,15.10
2022-10-08T06:19:49.909Z,15.10
2022-10-08T06:22:20.909Z,15.00
2022-10-08T06:24:51.966Z,15.00
2022-10-08T06:27:23.404Z,15.00
2022-10-08T06:29:54.667Z,15.00
2022-10-08T06:32:26.156Z,15.00
2022-10-08T06:34:59.174Z,14.90
2022-10-08T06:37:30.437Z,14.90
2022-10-08T06:40:01.336Z,14.90
2022-10-08T06:42:32.844Z,14.90
2022-10-08T06:45:03.899Z,14.80
2022-10-08T06:47:36.430Z,14.80
2022-10-08T06:50:12.669Z,14.80
2022-10-08T06:52:44.475Z,14.70
2022-10-08T06:55:16.320Z,14.70
2022-10-08T06:57:47.232Z,14.60
2022-10-08T07:00:18.900Z,14.60
2022-10-08T07:02:50.111Z,14.60
2022-10-08T07:05:23.974Z,14.60
2022-10-08T07:07:55.425Z,14.50
2022-10-08T07:10:30.947Z,14.50
2022-10-08T07:13:04.760Z,14.50
2022-10-08T07:15:35.761Z,14.50
2022-10-08T07:18:06.852Z,14.40
2022-10-08T07:20:40.721Z,14.40
2022-10-08T07:23:11.774Z,14.30
2022-10-08T07:25:42.849Z,14.30
2022-10-08T07:28:14.268Z,14.30
2022-10-08T07:30:45.310Z,14.30
2022-10-08T07:33:17.680Z,14.30
2022-10-08T07:35:53.168Z,14.20
2022-10-08T07:38:24.260Z,14.20
2022-10-08T07:40:58.689Z,14.20
2022-10-08T07:43:29.756Z,14.20
2022-10-08T07:46:00.976Z,14.20
2022-10-08T07:48:34.187Z,14.20
2022-10-08T07:51:13.952Z,14.20
2022-10-08T07:53:45.335Z,14.10
2022-10-08T07:56:18.685Z,14.10
2022-10-08T07:58:50.058Z,14.10
2022-10-08T08:01:23.207Z,14.10
2022-10-08T08:03:56.880Z,14.10
2022-10-08T08:06:30.120Z,14.00
2022-10-08T08:09:02.039Z,14.00
2022-10-08T08:11:36.908Z,14.00
2022-10-08T08:14:08.451Z,14.00
2022-10-08T08:16:41.203Z,14.00
2022-10-08T08:19:14.095Z,14.00
2022-10-08T08:21:47.473Z,14.00
2022-10-08T08:24:19.514Z,13.90
2022-10-08T08:26:51.539Z,13.90
2022-10-08T08:29:23.929Z,13.90
2022-10-08T08:31:55.061Z,13.90
2022-10-08T08:34:27.965Z,13.80
2022-10-08T08:37:03.677Z,13.90
2022-10-08T08:39:35.635Z,13.80
2022-10-08T08:42:24.844Z,13.80
2022-10-08T08:45:02.528Z,13.80
2022-10-08T08:47:38.393Z,13.70
2022-10-08T08:50:22.244Z,13.70
2022-10-08T08:52:55.591Z,13.70
2022-10-08T08:55:40.084Z,13.70
2022-10-08T08:58:22.577Z,13.70
2022-10-08T09:01:00.401Z,13.70
2022-10-08T09:03:36.647Z,13.70
2022-10-08T09:06:12.428Z,13.60
2022-10-08T09:08:50.460Z,13.60
2022-10-08T09:11:24.968Z,13.60
2022-10-08T09:14:01.281Z,13.60
2022-10-08T09:16:32.593Z,13.70
2022-10-08T09:19:03.878Z,13.60
2022-10-08T09:21:36.309Z,13.60
2022-10-08T09:24:09.614Z,13.60
2022-10-08T09:26:40.784Z,13.50
2022-10-08T09:29:32.230Z,13.50
2022-10-08T09:32:03.679Z,13.50
2022-10-08T09:34:35.841Z,13.50
2022-10-08T09:37:09.949Z,13.50
2022-10-08T09:39:43.061Z,13.50
2022-10-08T09:42:19.389Z,13.50
2022-10-08T09:44:52.789Z,13.50
2022-10-08T09:47:26.194Z,13.40
2022-10-08T09:50:08.275Z,13.40
2022-10-08T09:52:43.532Z,13.40
2022-10-08T09:55:30.760Z,13.40
2022-10-08T09:58:05.555Z,13.40
2022-10-08T10:00:38.846Z,13.30
2022-10-08T10:03:19.167Z,13.30
2022-10-08T10:05:55.926Z,13.30
2022-10-08T10:08:47.544Z,13.30
2022-10-08T10:11:28.065Z,13.20
2022-10-08T10:14:00.676Z,13.20
2022-10-08T10:16:38.072Z,13.20
2022-10-08T10:19:14.698Z,13.20
2022-10-08T10:21:52.021Z,13.10
2022-10-08T10:24:59.777Z,13.10
2022-10-08T10:27:39.104Z,13.10
2022-10-08T10:30:19.688Z,13.10
2022-10-08T10:32:56.025Z,13.10
2022-10-08T10:35:30.056Z,13.00
2022-10-08T10:38:08.562Z,12.90
2022-10-08T10:40:44.425Z,13.00
2022-10-08T10:43:28.968Z,13.00
2022-10-08T10:46:05.976Z,12.90
2022-10-08T10:48:37.268Z,12.90
2022-10-08T10:51:19.380Z,12.90
2022-10-08T10:54:03.787Z,12.80
2022-10-08T10:56:39.770Z,12.80
2022-10-08T10:59:32.406Z,12.80
2022-10-08T11:02:13.334Z,12.80
2022-10-08T11:04:56.118Z,12.80
2022-10-08T11:07:58.303Z,12.70
2022-10-08T11:10:42.517Z,12.70
2022-10-08T11:13:26.770Z,12.70
2022-10-08T11:16:11.465Z,12.70
2022-10-08T11:18:50.654Z,12.70
2022-10-08T11:21:40.184Z,12.60
2022-10-08T11:24:28.024Z,12.60
2022-10-08T11:27:03.696Z,12.60
2022-10-08T11:29:41.456Z,12.60
2022-10-08T11:32:19.037Z,12.50
2022-10-08T11:34:58.424Z,12.50
2022-10-08T11:37:36.061Z,12.50
2022-10-08T11:40:18.700Z,12.40
2022-10-08T11:42:56.941Z,12.40
2022-10-08T11:45:37.534Z,12.40
2022-10-08T11:48:35.520Z,12.40
2022-10-08T11:51:38.297Z,12.40
2022-10-08T11:54:13.500Z,12.40
2022-10-08T11:56:47.417Z,12.40
2022-10-08T11:59:40.867Z,12.40
2022-10-08T12:02:26.529Z,12.30
2022-10-08T12:05:02.385Z,12.30
2022-10-08T12:07:37.445Z,12.40
2022-10-08T12:10:34.461Z,12.30
2022-10-08T12:13:28.778Z,12.30
2022-10-08T12:16:05.923Z,12.30
2022-10-08T12:18:47.508Z,12.20
2022-10-08T12:22:02.480Z,12.20
2022-10-08T12:25:02.582Z,12.20
2022-10-08T12:27:40.997Z,12.20
2022-10-08T12:30:15.628Z,12.10
2022-10-08T12:33:01.423Z,12.20
2022-10-08T12:35:35.288Z,12.20
2022-10-08T12:38:22.962Z,12.10
2022-10-08T12:41:07.494Z,12.10
2022-10-08T12:43:48.084Z,12.10
2022-10-08T12:46:31.833Z,12.10
2022-10-08T12:49:06.846Z,12.10
2022-10-08T12:51:49.501Z,12.00
2022-10-08T12:54:27.777Z,12.00
2022-10-08T12:57:00.069Z,12.00
2022-10-08T12:59:34.281Z,12.00
2022-10-08T13:02:05.449Z,12.00
2022-10-08T13:04:36.695Z,12.00
2022-10-08T13:07:27.038Z,11.90
2022-10-08T13:10:01.823Z,11.90
2022-10-08T13:12:32.700Z,12.00
2022-10-08T13:15:07.197Z,12.00
2022-10-08T13:17:39.803Z,11.90
2022-10-08T13:20:18.251Z,11.90
2022-10-08T13:22:49.486Z,11.80
2022-10-08T13:25:47.074Z,11.80
2022-10-08T13:28:41.665Z,11.80
2022-10-08T13:31:26.660Z,11.70
2022-10-08T13:33:58.860Z,11.70
2022-10-08T13:36:33.426Z,11.60
2022-10-08T13:39:07.017Z,11.60
2022-10-08T13:41:40.310Z,11.60
2022-10-08T13:44:13.574Z,11.60
2022-10-08T13:46:45.419Z,11.60
2022-10-08T13:49:23.933Z,11.60
2022-10-08T13:51:56.147Z,11.60
2022-10-08T13:54:29.181Z,11.60
2022-10-08T13:57:02.573Z,11.60
2022-10-08T13:59:34.037Z,11.50
2022-10-08T14:02:05.450Z,11.50
2022-10-08T14:04:36.627Z,11.50
2022-10-08T14:07:08.002Z,11.50
2022-10-08T14:09:39.063Z,11.50
2022-10-08T14:12:12.708Z,11.50
2022-10-08T14:14:44.778Z,11.50
2022-10-08T14:17:16.364Z,11.50
2022-10-08T14:19:49.893Z,11.40
2022-10-08T14:22:22.009Z,11.50
2022-10-08T14:24:56.295Z,11.50
2022-10-08T14:27:30.405Z,11.50
2022-10-08T14:30:01.868Z,11.50
2022-10-08T14:32:33.432Z,11.50
2022-10-08T14:35:05.033Z,11.50
2022-10-08T14:37:36.259Z,11.50
2022-10-08T14:40:10.863Z,11.50
2022-10-08T14:42:45.747Z,11.60
2022-10-08T14:45:19.429Z,11.60
2022-10-08T14:47:52.292Z,11.60
2022-10-08T14:50:24.546Z,11.60
2022-10-08T14:52:56.138Z,11.60
2022-10-08T14:55:27.519Z,11.60
2022-10-08T14:58:03.312Z,11.70
2022-10-08T15:00:35.468Z,11.70
2022-10-08T15:03:07.474Z,11.70
2022-10-08T15:05:39.958Z,11.80
2022-10-08T15:08:11.596Z,11.80
2022-10-08T15:10:43.242Z,11.80
2022-10-08T15:13:17.558Z,11.80
2022-10-08T15:15:49.628Z,11.90
2022-10-08T15:18:20.682Z,11.90
2022-10-08T15:20:59.308Z,11.90
2022-10-08T15:23:32.283Z,11.90
2022-10-08T15:26:04.791Z,12.00
2022-10-08T15:28:40.016Z,12.00
2022-10-08T15:31:15.468Z,12.00
2022-10-08T15:33:48.079Z,12.10
2022-10-08T15:36:23.424Z,12.10
2022-10-08T15:39:00.386Z,12.20
2022-10-08T15:41:33.366Z,12.20
2022-10-08T15:44:12.943Z,12.30
2022-10-08T15:46:44.783Z,12.40
2022-10-08T15:49:16.505Z,12.40
2022-10-08T15:51:48.101Z,12.50
2022-10-08T15:54:19.554Z,12.50
2022-10-08T15:56:52.079Z,12.60
2022-10-08T15:59:26.751Z,12.70
2022-10-08T16:01:58.618Z,12.80
2022-10-08T16:04:30.601Z,12.90
2022-10-08T16:07:02.172Z,13.00
2022-10-08T16:09:33.467Z,13.10
2022-10-08T16:12:04.939Z,13.20
2022-10-08T16:14:40.982Z,13.30
2022-10-08T16:17:13.915Z,13.50
2022-10-08T16:19:45.630Z,13.60
2022-10-08T16:22:17.186Z,13.70
2022-10-08T16:24:49.666Z,13.80
2022-10-08T16:27:21.122Z,13.80
2022-10-08T16:29:54.712Z,13.90
2022-10-08T16:32:26.157Z,14.00
2022-10-08T16:34:59.197Z,14.10
2022-10-08T16:37:30.351Z,14.10
2022-10-08T16:40:05.503Z,14.20
2022-10-08T16:42:36.974Z,14.30
2022-10-08T16:45:13.898Z,14.40
2022-10-08T16:47:45.514Z,14.50
2022-10-08T16:50:18.545Z,14.50
2022-10-08T16:52:50.326Z,14.60
2022-10-08T16:55:22.302Z,14.70
2022-10-08T16:57:53.960Z,14.70
2022-10-08T17:00:31.821Z,14.80
2022-10-08T17:03:03.354Z,14.90
2022-10-08T17:05:35.040Z,15.00
2022-10-08T17:08:06.652Z,15.00
2022-10-08T17:10:37.402Z,15.20
2022-10-08T17:13:08.938Z,15.30
2022-10-08T17:15:42.446Z,15.40
2022-10-08T17:18:14.570Z,15.40
2022-10-08T17:20:45.976Z,15.50
2022-10-08T17:23:17.386Z,15.60
2022-10-08T17:25:48.808Z,15.70
2022-10-08T17:28:24.684Z,15.70
2022-10-08T17:30:59.129Z,15.80
2022-10-08T17:33:35.501Z,15.90
2022-10-08T17:36:09.108Z,15.90
2022-10-08T17:38:44.124Z,16.10
2022-10-08T17:41:16.988Z,16.10
2022-10-08T17:43:49.475Z,16.30
2022-10-08T17:46:25.946Z,16.30
2022-10-08T17:48:57.764Z,16.30
2022-10-08T17:51:31.161Z,16.40
2022-10-08T17:54:04.105Z,16.50
2022-10-08T17:56:36.004Z,16.60
2022-10-08T17:59:07.672Z,16.70
2022-10-08T18:01:45.093Z,16.80
2022-10-08T18:04:19.752Z,16.90
2022-10-08T18:06:52.363Z,17.00
2022-10-08T18:09:25.200Z,17.10
2022-10-08T18:11:57.751Z,17.20
2022-10-08T18:14:29.247Z,17.30
2022-10-08T18:17:02.807Z,17.40
2022-10-08T18:19:34.599Z,17.50
2022-10-08T18:22:06.120Z,17.60
2022-10-08T18:24:37.621Z,17.70
2022-10-08T18:27:09.575Z,17.80
2022-10-08T18:29:41.397Z,17.90
2022-10-08T18:32:14.905Z,18.00
2022-10-08T18:34:48.033Z,18.10
2022-10-08T18:37:19.154Z,18.20
2022-10-08T18:39:51.284Z,18.20
2022-10-08T18:42:23.569Z,18.30
2022-10-08T18:44:55.075Z,18.40
2022-10-08T18:47:29.258Z,18.50
2022-10-08T18:50:01.382Z,18.60
2022-10-08T18:52:34.286Z,18.60
2022-10-08T18:55:05.731Z,18.70
2022-10-08T18:57:37.136Z,18.80
2022-10-08T19:00:09.392Z,18.90
2022-10-08T19:02:44.028Z,18.90
2022-10-08T19:05:16.476Z,19.00
2022-10-08T19:07:47.660Z,19.10
2022-10-08T19:10:18.979Z,19.20
2022-10-08T19:12:50.653Z,19.20
2022-10-08T19:15:21.868Z,19.40
2022-10-08T19:17:54.948Z,19.50
2022-10-08T19:20:26.216Z,19.50
2022-10-08T19:22:57.304Z,19.60
2022-10-08T19:25:30.853Z,19.70
2022-10-08T19:28:01.947Z,19.80
2022-10-08T19:30:36.274Z,19.90
2022-10-08T19:33:09.567Z,19.90
2022-10-08T19:35:42.767Z,20.00
2022-10-08T19:38:17.425Z,20.10
2022-10-08T19:40:49.110Z,20.10
2022-10-08T19:43:20.481Z,20.10
2022-10-08T19:45:52.828Z,20.30
2022-10-08T19:48:26.878Z,20.40
2022-10-08T19:50:58.000Z,20.50
2022-10-08T19:53:29.037Z,20.50
2022-10-08T19:56:00.152Z,20.60
2022-10-08T19:58:37.059Z,20.60
2022-10-08T20:01:10.680Z,20.80
2022-10-08T20:03:48.059Z,20.90
2022-10-08T20:06:24.788Z,20.90
2022-10-08T20:08:58.748Z,21.00
2022-10-08T20:11:31.250Z,21.10
2022-10-08T20:14:04.454Z,21.20
2022-10-08T20:16:37.327Z,21.30
2022-10-08T20:19:17.452Z,21.40
2022-10-08T20:21:48.612Z,21.40
2022-10-08T20:24:21.263Z,21.30
2022-10-08T20:26:52.632Z,21.40
2022-10-08T20:29:30.035Z,21.50
2022-10-08T20:32:01.906Z,21.70
2022-10-08T20:34:36.293Z,21.80
2022-10-08T20:37:11.065Z,22.00
2022-10-08T20:39:44.329Z,22.00
2022-10-08T20:42:15.556Z,22.00
2022-10-08T20:44:46.709Z,22.10
2022-10-08T20:47:17.785Z,22.30
2022-10-08T20:49:52.274Z,22.40
2022-10-08T20:52:24.496Z,22.60
2022-10-08T20:54:55.368Z,22.70
2022-10-08T20:57:26.588Z,23.00
2022-10-08T20:59:57.856Z,23.10
2022-10-08T21:02:30.084Z,23.30
2022-10-08T21:05:04.021Z,23.40
2022-10-08T21:07:35.094Z,23.70
2022-10-08T21:10:07.576Z,23.80
2022-10-08T21:12:41.474Z,23.90
2022-10-08T21:15:14.772Z,24.00
2022-10-08T21:17:47.758Z,24.10
2022-10-08T21:20:21.069Z,24.20
2022-10-08T21:22:53.288Z,24.20
2022-10-08T21:25:25.742Z,24.30
2022-10-08T21:27:57.144Z,24.50
2022-10-08T21:30:28.386Z,24.30
2022-10-08T21:33:00.516Z,24.10
2022-10-08T21:35:48.708Z,24.10
2022-10-08T21:38:20.285Z,24.10
2022-10-08T21:40:58.776Z,24.30
2022-10-08T21:43:32.205Z,24.50
2022-10-08T21:46:04.234Z,24.70
2022-10-08T21:48:35.512Z,24.80
2022-10-08T21:51:10.762Z,24.80
2022-10-08T21:53:43.783Z,24.70
2022-10-08T21:56:19.866Z,24.70
2022-10-08T21:58:52.733Z,24.70
2022-10-08T22:01:26.089Z,24.80
2022-10-08T22:03:58.178Z,24.70
2022-10-08T22:06:35.011Z,24.70
2022-10-08T22:09:06.724Z,25.00
2022-10-08T22:11:38.114Z,25.00
2022-10-08T22:14:10.068Z,25.10
2022-10-08T22:16:41.377Z,25.30
2022-10-08T22:19:12.539Z,25.60
2022-10-08T22:21:46.263Z,25.60
2022-10-08T22:24:17.775Z,25.30
2022-10-08T22:26:53.001Z,25.20
2022-10-08T22:29:24.537Z,25.30
2022-10-08T22:31:57.398Z,25.40
2022-10-08T22:34:28.725Z,25.40
2022-10-08T22:37:01.724Z,25.50
2022-10-08T22:39:33.263Z,25.60
2022-10-08T22:42:04.292Z,25.50
2022-10-08T22:44:36.339Z,25.60
2022-10-08T22:47:07.674Z,25.60
2022-10-08T22:49:38.709Z,25.60
2022-10-08T22:52:12.455Z,25.70
2022-10-08T22:54:43.527Z,25.90
2022-10-08T22:57:15.168Z,25.70
2022-10-08T22:59:46.405Z,25.60
2022-10-08T23:02:18.096Z,25.50
2022-10-08T23:04:49.190Z,25.20
2022-10-08T23:07:22.289Z,24.90
2022-10-08T23:09:53.994Z,24.80
2022-10-08T23:12:25.026Z,24.90
2022-10-08T23:14:56.115Z,24.90
2022-10-08T23:17:27.196Z,24.70
2022-10-08T23:19:58.730Z,24.70
2022-10-08T23:22:31.758Z,24.70
2022-10-08T23:25:02.990Z,24.30
2022-10-08T23:27:34.456Z,24.10
2022-10-08T23:30:16.890Z,24.10
2022-10-08T23:32:56.789Z,24.10
2022-10-08T23:35:28.820Z,24.20
2022-10-08T23:38:01.921Z,24.10
2022-10-08T23:40:33.227Z,24.00
2022-10-08T23:43:04.642Z,23.80
2022-10-08T23:45:35.717Z,23.70
2022-10-08T23:48:06.848Z,23.60
2022-10-08T23:50:41.458Z,23.50
2022-10-08T23:53:15.524Z,23.40
2022-10-08T23:55:47.066Z,23.40
2022-10-08T23:58:20.032Z,23.40
